sensor_id;sensor_type;location;lat;lon;timestamp;pressure;altitude;pressure_sealevel;temperature;humidity
17649;BME280;8943;51.110;-4.158;2022-10-22T00:01:51;99811.53;;;19.27;55.81
17649;BME280;8943;51.110;-4.158;2022-10-22T00:04:27;99814.38;;;19.19;55.48
17649;BME280;8943;51.110;-4.158;2022-10-22T00:07:29;99825.56;;;19.16;55.29
17649;BME280;8943;51.110;-4.158;2022-10-22T00:10:03;99816.41;;;19.17;54.75
17649;BME280;8943;51.110;-4.158;2022-10-22T00:12:41;99827.22;;;19.17;54.50
17649;BME280;8943;51.110;-4.158;2022-10-22T00:15:25;99835.59;;;19.22;54.45
17649;BME280;8943;51.110;-4.158;2022-10-22T00:18:37;99835.53;;;19.16;54.42
17649;BME280;8943;51.110;-4.158;2022-10-22T00:21:26;99839.72;;;19.18;53.92
17649;BME280;8943;51.110;-4.158;2022-10-22T00:24:42;99844.19;;;19.11;54.25
17649;BME280;8943;51.110;-4.158;2022-10-22T00:27:44;99841.88;;;19.08;53.98
17649;BME280;8943;51.110;-4.158;2022-10-22T00:30:21;99857.06;;;19.09;53.51
17649;BME280;8943;51.110;-4.158;2022-10-22T00:32:57;99859.28;;;19.06;53.41
17649;BME280;8943;51.110;-4.158;2022-10-22T00:35:38;99859.38;;;18.97;53.55
17649;BME280;8943;51.110;-4.158;2022-10-22T00:38:20;99888.91;;;18.99;53.23
17649;BME280;8943;51.110;-4.158;2022-10-22T00:41:19;99883.41;;;18.92;53.32
17649;BME280;8943;51.110;-4.158;2022-10-22T00:47:59;99889.56;;;18.86;52.14
17649;BME280;8943;51.110;-4.158;2022-10-22T00:51:13;99891.06;;;18.89;51.64
17649;BME280;8943;51.110;-4.158;2022-10-22T00:53:47;99892.59;;;18.98;51.89
17649;BME280;8943;51.110;-4.158;2022-10-22T00:56:36;99902.41;;;18.99;52.00
17649;BME280;8943;51.110;-4.158;2022-10-22T00:59:15;99907.69;;;19.07;51.88
17649;BME280;8943;51.110;-4.158;2022-10-22T01:01:59;99901.72;;;19.12;52.32
17649;BME280;8943;51.110;-4.158;2022-10-22T01:04:48;99913.19;;;19.14;51.93
17649;BME280;8943;51.110;-4.158;2022-10-22T01:07:24;99918.19;;;19.17;51.92
17649;BME280;8943;51.110;-4.158;2022-10-22T01:21:11;99942.06;;;19.13;51.29
17649;BME280;8943;51.110;-4.158;2022-10-22T01:24:43;99945.50;;;19.07;51.57
17649;BME280;8943;51.110;-4.158;2022-10-22T01:30:29;99952.94;;;19.05;51.63
17649;BME280;8943;51.110;-4.158;2022-10-22T01:36:07;99970.47;;;19.09;51.53
17649;BME280;8943;51.110;-4.158;2022-10-22T01:38:42;99960.50;;;19.10;51.55
17649;BME280;8943;51.110;-4.158;2022-10-22T01:42:05;99962.09;;;19.04;51.88
17649;BME280;8943;51.110;-4.158;2022-10-22T01:45:10;99968.31;;;19.04;51.62
17649;BME280;8943;51.110;-4.158;2022-10-22T01:47:56;99969.91;;;18.99;51.78
17649;BME280;8943;51.110;-4.158;2022-10-22T01:50:56;99975.66;;;18.96;51.46
17649;BME280;8943;51.110;-4.158;2022-10-22T01:53:41;99987.66;;;18.93;51.87
17649;BME280;8943;51.110;-4.158;2022-10-22T01:56:34;99986.47;;;18.96;52.34
17649;BME280;8943;51.110;-4.158;2022-10-22T01:59:14;99976.13;;;18.99;52.44
17649;BME280;8943;51.110;-4.158;2022-10-22T02:02:12;99984.22;;;18.99;52.38
17649;BME280;8943;51.110;-4.158;2022-10-22T02:04:57;99985.72;;;19.02;52.44
17649;BME280;8943;51.110;-4.158;2022-10-22T02:07:31;99982.44;;;19.07;52.23
17649;BME280;8943;51.110;-4.158;2022-10-22T02:10:28;99979.59;;;19.08;52.51
17649;BME280;8943;51.110;-4.158;2022-10-22T02:13:30;99978.28;;;19.04;52.40
17649;BME280;8943;51.110;-4.158;2022-10-22T02:16:37;99984.13;;;18.93;52.29
17649;BME280;8943;51.110;-4.158;2022-10-22T02:19:17;99990.63;;;18.84;52.38
17649;BME280;8943;51.110;-4.158;2022-10-22T02:21:55;99988.22;;;18.74;52.64
17649;BME280;8943;51.110;-4.158;2022-10-22T02:24:32;99996.69;;;18.63;52.99
17649;BME280;8943;51.110;-4.158;2022-10-22T02:27:07;99999.59;;;18.61;53.08
17649;BME280;8943;51.110;-4.158;2022-10-22T02:29:42;100002.94;;;18.63;53.13
17649;BME280;8943;51.110;-4.158;2022-10-22T02:32:35;100005.47;;;18.65;53.03
17649;BME280;8943;51.110;-4.158;2022-10-22T02:35:11;100011.81;;;18.72;52.85
17649;BME280;8943;51.110;-4.158;2022-10-22T02:37:42;100014.63;;;18.78;52.72
17649;BME280;8943;51.110;-4.158;2022-10-22T02:40:12;100015.78;;;18.84;52.60
17649;BME280;8943;51.110;-4.158;2022-10-22T02:42:42;100024.03;;;18.83;52.47
17649;BME280;8943;51.110;-4.158;2022-10-22T02:45:11;100022.38;;;18.82;52.59
17649;BME280;8943;51.110;-4.158;2022-10-22T02:47:40;100013.97;;;18.76;52.70
17649;BME280;8943;51.110;-4.158;2022-10-22T02:50:08;100020.41;;;18.75;52.67
17649;BME280;8943;51.110;-4.158;2022-10-22T02:52:37;100025.31;;;18.72;52.71
17649;BME280;8943;51.110;-4.158;2022-10-22T02:55:08;100030.59;;;18.65;52.72
17649;BME280;8943;51.110;-4.158;2022-10-22T02:57:37;100038.19;;;18.62;52.67
17649;BME280;8943;51.110;-4.158;2022-10-22T03:00:09;100035.41;;;18.55;52.69
17649;BME280;8943;51.110;-4.158;2022-10-22T03:02:39;100025.69;;;18.46;53.12
17649;BME280;8943;51.110;-4.158;2022-10-22T03:05:10;100032.47;;;18.42;53.17
17649;BME280;8943;51.110;-4.158;2022-10-22T03:07:38;100032.66;;;18.40;53.15
17649;BME280;8943;51.110;-4.158;2022-10-22T03:10:10;100036.53;;;18.38;53.52
17649;BME280;8943;51.110;-4.158;2022-10-22T03:12:40;100041.28;;;18.36;53.59
17649;BME280;8943;51.110;-4.158;2022-10-22T03:15:10;100033.53;;;18.33;53.51
17649;BME280;8943;51.110;-4.158;2022-10-22T03:17:41;100034.06;;;18.28;53.58
17649;BME280;8943;51.110;-4.158;2022-10-22T03:20:10;100037.97;;;18.25;53.71
17649;BME280;8943;51.110;-4.158;2022-10-22T03:22:55;100037.50;;;18.22;53.84
17649;BME280;8943;51.110;-4.158;2022-10-22T03:25:31;100044.59;;;18.15;53.83
17649;BME280;8943;51.110;-4.158;2022-10-22T03:28:06;100051.50;;;18.17;53.95
17649;BME280;8943;51.110;-4.158;2022-10-22T03:30:42;100049.53;;;18.11;53.77
17649;BME280;8943;51.110;-4.158;2022-10-22T03:36:51;100051.78;;;17.99;54.23
17649;BME280;8943;51.110;-4.158;2022-10-22T03:39:53;100051.47;;;17.94;54.09
17649;BME280;8943;51.110;-4.158;2022-10-22T03:42:24;100049.78;;;17.93;54.33
17649;BME280;8943;51.110;-4.158;2022-10-22T03:44:54;100049.31;;;17.90;54.30
17649;BME280;8943;51.110;-4.158;2022-10-22T03:47:23;100050.50;;;17.87;54.43
17649;BME280;8943;51.110;-4.158;2022-10-22T03:49:52;100057.91;;;17.85;54.44
17649;BME280;8943;51.110;-4.158;2022-10-22T03:52:23;100064.50;;;17.83;54.64
17649;BME280;8943;51.110;-4.158;2022-10-22T03:54:55;100063.81;;;17.81;54.59
17649;BME280;8943;51.110;-4.158;2022-10-22T03:57:27;100071.91;;;17.81;54.87
17649;BME280;8943;51.110;-4.158;2022-10-22T03:59:56;100079.16;;;17.80;54.86
17649;BME280;8943;51.110;-4.158;2022-10-22T04:02:25;100073.63;;;17.82;54.81
17649;BME280;8943;51.110;-4.158;2022-10-22T04:05:07;100081.34;;;17.85;54.68
17649;BME280;8943;51.110;-4.158;2022-10-22T04:07:36;100089.41;;;17.85;54.80
17649;BME280;8943;51.110;-4.158;2022-10-22T04:10:07;100091.47;;;17.83;54.92
17649;BME280;8943;51.110;-4.158;2022-10-22T04:12:42;100087.25;;;17.80;54.70
17649;BME280;8943;51.110;-4.158;2022-10-22T04:15:27;100092.81;;;17.79;54.63
17649;BME280;8943;51.110;-4.158;2022-10-22T04:18:00;100085.41;;;17.72;54.65
17649;BME280;8943;51.110;-4.158;2022-10-22T04:20:33;100098.56;;;17.67;54.91
17649;BME280;8943;51.110;-4.158;2022-10-22T04:23:19;100101.59;;;17.64;54.58
17649;BME280;8943;51.110;-4.158;2022-10-22T04:26:09;100107.84;;;17.57;54.39
17649;BME280;8943;51.110;-4.158;2022-10-22T04:31:52;100106.34;;;17.46;54.82
17649;BME280;8943;51.110;-4.158;2022-10-22T04:34:28;100110.59;;;17.40;54.74
17649;BME280;8943;51.110;-4.158;2022-10-22T04:37:06;100112.13;;;17.35;54.63
17649;BME280;8943;51.110;-4.158;2022-10-22T04:40:03;100111.59;;;17.31;54.74
17649;BME280;8943;51.110;-4.158;2022-10-22T04:42:37;100109.59;;;17.25;54.72
17649;BME280;8943;51.110;-4.158;2022-10-22T04:45:10;100111.63;;;17.23;54.93
17649;BME280;8943;51.110;-4.158;2022-10-22T04:47:47;100129.97;;;17.19;54.77
17649;BME280;8943;51.110;-4.158;2022-10-22T04:50:32;100127.78;;;17.15;54.95
17649;BME280;8943;51.110;-4.158;2022-10-22T04:53:06;100118.38;;;17.11;55.18
17649;BME280;8943;51.110;-4.158;2022-10-22T04:55:40;100136.69;;;17.07;55.02
17649;BME280;8943;51.110;-4.158;2022-10-22T04:58:35;100133.53;;;17.04;54.91
17649;BME280;8943;51.110;-4.158;2022-10-22T05:01:43;100131.34;;;16.99;55.03
17649;BME280;8943;51.110;-4.158;2022-10-22T05:04:54;100133.84;;;16.92;54.69
17649;BME280;8943;51.110;-4.158;2022-10-22T05:10:29;100138.41;;;16.84;54.90
17649;BME280;8943;51.110;-4.158;2022-10-22T05:13:11;100134.00;;;16.83;55.11
17649;BME280;8943;51.110;-4.158;2022-10-22T05:15:41;100149.50;;;16.81;55.19
17649;BME280;8943;51.110;-4.158;2022-10-22T05:18:13;100142.44;;;16.80;55.18
17649;BME280;8943;51.110;-4.158;2022-10-22T05:21:13;100152.50;;;16.78;55.19
17649;BME280;8943;51.110;-4.158;2022-10-22T05:23:52;100157.22;;;16.76;55.22
17649;BME280;8943;51.110;-4.158;2022-10-22T05:26:50;100162.94;;;16.72;55.23
17649;BME280;8943;51.110;-4.158;2022-10-22T05:29:40;100166.78;;;16.70;55.31
17649;BME280;8943;51.110;-4.158;2022-10-22T05:40:29;100167.94;;;16.59;55.31
17649;BME280;8943;51.110;-4.158;2022-10-22T05:49:53;100184.22;;;16.50;55.52
17649;BME280;8943;51.110;-4.158;2022-10-22T05:52:38;100188.72;;;16.49;55.60
17649;BME280;8943;51.110;-4.158;2022-10-22T06:09:47;100188.38;;;16.36;55.80
17649;BME280;8943;51.110;-4.158;2022-10-22T06:12:28;100193.59;;;16.37;55.70
17649;BME280;8943;51.110;-4.158;2022-10-22T06:15:21;100196.28;;;16.37;55.75
17649;BME280;8943;51.110;-4.158;2022-10-22T06:31:53;100227.63;;;16.20;55.88
17649;BME280;8943;51.110;-4.158;2022-10-22T06:37:27;100232.66;;;16.15;55.97
17649;BME280;8943;51.110;-4.158;2022-10-22T06:40:16;100240.03;;;16.13;56.43
17649;BME280;8943;51.110;-4.158;2022-10-22T06:43:15;100235.66;;;16.12;56.09
17649;BME280;8943;51.110;-4.158;2022-10-22T06:46:28;100249.09;;;16.12;56.12
17649;BME280;8943;51.110;-4.158;2022-10-22T06:54:59;100242.88;;;16.12;56.34
17649;BME280;8943;51.110;-4.158;2022-10-22T06:57:36;100239.34;;;16.11;56.29
17649;BME280;8943;51.110;-4.158;2022-10-22T07:00:17;100248.09;;;16.13;56.19
17649;BME280;8943;51.110;-4.158;2022-10-22T07:03:33;100258.00;;;16.13;56.09
17649;BME280;8943;51.110;-4.158;2022-10-22T07:06:20;100252.44;;;16.14;55.98
17649;BME280;8943;51.110;-4.158;2022-10-22T07:09:25;100263.19;;;16.14;56.19
17649;BME280;8943;51.110;-4.158;2022-10-22T07:12:06;100269.41;;;16.15;56.23
17649;BME280;8943;51.110;-4.158;2022-10-22T07:14:38;100272.63;;;16.18;56.37
17649;BME280;8943;51.110;-4.158;2022-10-22T07:17:18;100278.53;;;16.22;56.33
17649;BME280;8943;51.110;-4.158;2022-10-22T07:19:47;100275.69;;;16.23;56.30
17649;BME280;8943;51.110;-4.158;2022-10-22T07:22:20;100283.25;;;16.28;56.65
17649;BME280;8943;51.110;-4.158;2022-10-22T07:35:18;100287.22;;;16.42;56.53
17649;BME280;8943;51.110;-4.158;2022-10-22T07:37:47;100291.94;;;16.48;56.79
17649;BME280;8943;51.110;-4.158;2022-10-22T07:40:55;100304.91;;;16.53;56.80
17649;BME280;8943;51.110;-4.158;2022-10-22T07:44:27;100317.69;;;16.59;57.20
17649;BME280;8943;51.110;-4.158;2022-10-22T08:18:11;100340.69;;;17.54;57.34
17649;BME280;8943;51.110;-4.158;2022-10-22T08:41:15;100377.00;;;18.64;57.42
17649;BME280;8943;51.110;-4.158;2022-10-22T08:44:43;100362.13;;;18.76;57.48
17649;BME280;8943;51.110;-4.158;2022-10-22T08:47:54;100370.56;;;18.82;57.27
17649;BME280;8943;51.110;-4.158;2022-10-22T08:50:33;100359.03;;;18.96;57.16
17649;BME280;8943;51.110;-4.158;2022-10-22T08:53:06;100368.09;;;19.03;57.46
17649;BME280;8943;51.110;-4.158;2022-10-22T08:55:39;100359.09;;;19.19;57.44
17649;BME280;8943;51.110;-4.158;2022-10-22T08:58:26;100367.25;;;19.34;57.42
17649;BME280;8943;51.110;-4.158;2022-10-22T09:00:59;100370.19;;;19.47;57.35
17649;BME280;8943;51.110;-4.158;2022-10-22T09:03:37;100357.31;;;19.57;56.98
17649;BME280;8943;51.110;-4.158;2022-10-22T09:06:16;100361.50;;;19.68;56.97
17649;BME280;8943;51.110;-4.158;2022-10-22T09:08:51;100368.69;;;19.75;56.98
17649;BME280;8943;51.110;-4.158;2022-10-22T09:11:25;100369.94;;;19.88;56.95
17649;BME280;8943;51.110;-4.158;2022-10-22T09:13:58;100378.09;;;20.02;56.96
17649;BME280;8943;51.110;-4.158;2022-10-22T09:16:36;100379.81;;;20.18;56.83
17649;BME280;8943;51.110;-4.158;2022-10-22T09:19:17;100374.41;;;20.33;56.59
17649;BME280;8943;51.110;-4.158;2022-10-22T09:22:16;100377.34;;;20.46;56.48
17649;BME280;8943;51.110;-4.158;2022-10-22T09:24:52;100372.78;;;20.62;56.64
17649;BME280;8943;51.110;-4.158;2022-10-22T09:27:26;100375.88;;;20.73;56.28
17649;BME280;8943;51.110;-4.158;2022-10-22T09:29:57;100381.47;;;20.87;56.29
17649;BME280;8943;51.110;-4.158;2022-10-22T09:32:51;100380.81;;;20.99;56.13
17649;BME280;8943;51.110;-4.158;2022-10-22T09:35:23;100379.28;;;21.12;55.88
17649;BME280;8943;51.110;-4.158;2022-10-22T09:37:55;100389.19;;;21.19;55.37
17649;BME280;8943;51.110;-4.158;2022-10-22T09:40:28;100381.53;;;21.23;55.39
17649;BME280;8943;51.110;-4.158;2022-10-22T09:43:01;100393.84;;;21.25;55.27
17649;BME280;8943;51.110;-4.158;2022-10-22T09:45:41;100384.03;;;21.24;54.86
17649;BME280;8943;51.110;-4.158;2022-10-22T09:48:35;100386.75;;;21.24;54.94
17649;BME280;8943;51.110;-4.158;2022-10-22T09:51:47;100386.06;;;21.22;54.76
17649;BME280;8943;51.110;-4.158;2022-10-22T09:54:51;100377.56;;;21.25;55.03
17649;BME280;8943;51.110;-4.158;2022-10-22T09:57:21;100382.91;;;21.33;54.96
17649;BME280;8943;51.110;-4.158;2022-10-22T10:00:17;100377.31;;;21.35;54.97
17649;BME280;8943;51.110;-4.158;2022-10-22T10:02:48;100367.75;;;21.39;54.55
17649;BME280;8943;51.110;-4.158;2022-10-22T10:05:24;100379.31;;;21.48;54.69
17649;BME280;8943;51.110;-4.158;2022-10-22T10:07:53;100378.34;;;21.55;54.70
17649;BME280;8943;51.110;-4.158;2022-10-22T10:10:34;100374.84;;;21.62;54.54
17649;BME280;8943;51.110;-4.158;2022-10-22T10:13:29;100368.28;;;21.71;54.79
17649;BME280;8943;51.110;-4.158;2022-10-22T10:19:00;100372.03;;;21.91;54.67
17649;BME280;8943;51.110;-4.158;2022-10-22T10:21:37;100369.25;;;22.06;54.82
17649;BME280;8943;51.110;-4.158;2022-10-22T10:24:21;100376.06;;;22.23;54.31
17649;BME280;8943;51.110;-4.158;2022-10-22T10:26:59;100366.78;;;22.39;54.36
17649;BME280;8943;51.110;-4.158;2022-10-22T10:30:02;100381.28;;;22.53;54.06
17649;BME280;8943;51.110;-4.158;2022-10-22T10:33:01;100379.72;;;22.65;53.95
17649;BME280;8943;51.110;-4.158;2022-10-22T10:35:57;100381.03;;;22.76;53.57
17649;BME280;8943;51.110;-4.158;2022-10-22T10:38:53;100383.84;;;22.89;53.81
17649;BME280;8943;51.110;-4.158;2022-10-22T10:41:48;100390.56;;;23.00;53.74
17649;BME280;8943;51.110;-4.158;2022-10-22T10:44:45;100379.34;;;23.09;53.63
17649;BME280;8943;51.110;-4.158;2022-10-22T10:50:32;100377.91;;;23.27;52.95
17649;BME280;8943;51.110;-4.158;2022-10-22T10:54:09;100379.19;;;23.31;53.14
17649;BME280;8943;51.110;-4.158;2022-10-22T10:56:48;100381.09;;;23.37;52.54
17649;BME280;8943;51.110;-4.158;2022-10-22T10:59:35;100385.91;;;23.42;52.60
17649;BME280;8943;51.110;-4.158;2022-10-22T11:05:35;100391.56;;;23.47;52.29
17649;BME280;8943;51.110;-4.158;2022-10-22T11:08:34;100386.56;;;23.50;52.26
17649;BME280;8943;51.110;-4.158;2022-10-22T11:11:21;100384.28;;;23.54;52.26
17649;BME280;8943;51.110;-4.158;2022-10-22T11:14:08;100397.03;;;23.60;52.17
17649;BME280;8943;51.110;-4.158;2022-10-22T11:16:58;100399.81;;;23.67;51.90
17649;BME280;8943;51.110;-4.158;2022-10-22T11:19:34;100398.78;;;23.74;51.89
17649;BME280;8943;51.110;-4.158;2022-10-22T11:22:37;100396.50;;;23.78;51.51
17649;BME280;8943;51.110;-4.158;2022-10-22T11:25:42;100395.44;;;23.79;51.44
17649;BME280;8943;51.110;-4.158;2022-10-22T11:28:38;100393.78;;;23.84;51.44
17649;BME280;8943;51.110;-4.158;2022-10-22T11:31:50;100393.34;;;23.81;51.21
17649;BME280;8943;51.110;-4.158;2022-10-22T11:34:48;100387.91;;;23.81;51.07
17649;BME280;8943;51.110;-4.158;2022-10-22T11:43:34;100391.00;;;23.58;50.27
17649;BME280;8943;51.110;-4.158;2022-10-22T12:22:21;100377.50;;;22.47;51.11
17649;BME280;8943;51.110;-4.158;2022-10-22T13:22:41;100343.44;;;23.41;50.59
17649;BME280;8943;51.110;-4.158;2022-10-22T13:49:16;100315.03;;;23.43;50.55
17649;BME280;8943;51.110;-4.158;2022-10-22T13:51:47;100319.19;;;23.46;50.35
17649;BME280;8943;51.110;-4.158;2022-10-22T13:54:25;100324.63;;;23.46;50.58
17649;BME280;8943;51.110;-4.158;2022-10-22T13:57:14;100317.94;;;23.42;50.64
17649;BME280;8943;51.110;-4.158;2022-10-22T13:59:51;100312.31;;;23.50;50.53
17649;BME280;8943;51.110;-4.158;2022-10-22T14:02:20;100310.63;;;23.49;50.77
17649;BME280;8943;51.110;-4.158;2022-10-22T14:04:52;100320.47;;;23.56;50.22
17649;BME280;8943;51.110;-4.158;2022-10-22T14:07:22;100311.91;;;23.53;50.46
17649;BME280;8943;51.110;-4.158;2022-10-22T14:09:59;100307.47;;;23.52;50.29
17649;BME280;8943;51.110;-4.158;2022-10-22T14:12:51;100304.56;;;23.47;50.63
17649;BME280;8943;51.110;-4.158;2022-10-22T14:15:28;100300.56;;;23.36;50.27
17649;BME280;8943;51.110;-4.158;2022-10-22T14:18:06;100305.16;;;23.35;50.39
17649;BME280;8943;51.110;-4.158;2022-10-22T14:20:41;100303.50;;;23.34;50.14
17649;BME280;8943;51.110;-4.158;2022-10-22T14:23:21;100292.19;;;23.24;50.68
17649;BME280;8943;51.110;-4.158;2022-10-22T14:25:54;100285.50;;;23.27;50.74
17649;BME280;8943;51.110;-4.158;2022-10-22T14:28:24;100281.53;;;23.29;50.97
17649;BME280;8943;51.110;-4.158;2022-10-22T14:30:53;100279.66;;;23.36;50.89
17649;BME280;8943;51.110;-4.158;2022-10-22T14:33:28;100286.97;;;23.36;50.75
17649;BME280;8943;51.110;-4.158;2022-10-22T14:35:59;100286.13;;;23.35;50.85
17649;BME280;8943;51.110;-4.158;2022-10-22T14:38:28;100286.53;;;23.32;50.74
17649;BME280;8943;51.110;-4.158;2022-10-22T14:40:58;100284.69;;;23.33;50.78
17649;BME280;8943;51.110;-4.158;2022-10-22T14:43:29;100281.97;;;23.33;50.82
17649;BME280;8943;51.110;-4.158;2022-10-22T14:45:58;100288.25;;;23.33;50.60
17649;BME280;8943;51.110;-4.158;2022-10-22T14:48:27;100279.47;;;23.38;50.90
17649;BME280;8943;51.110;-4.158;2022-10-22T14:50:56;100284.47;;;23.41;50.94
17649;BME280;8943;51.110;-4.158;2022-10-22T14:53:25;100284.47;;;23.41;50.53
17649;BME280;8943;51.110;-4.158;2022-10-22T14:55:55;100281.53;;;23.36;50.48
17649;BME280;8943;51.110;-4.158;2022-10-22T14:58:25;100292.81;;;23.26;50.81
17649;BME280;8943;51.110;-4.158;2022-10-22T15:00:53;100288.41;;;23.19;50.81
17649;BME280;8943;51.110;-4.158;2022-10-22T15:03:22;100291.75;;;23.14;50.68
17649;BME280;8943;51.110;-4.158;2022-10-22T15:05:53;100302.41;;;23.09;50.94
17649;BME280;8943;51.110;-4.158;2022-10-22T15:08:22;100301.75;;;23.00;50.88
17649;BME280;8943;51.110;-4.158;2022-10-22T15:11:00;100303.19;;;22.90;50.82
17649;BME280;8943;51.110;-4.158;2022-10-22T15:13:29;100300.16;;;22.78;51.10
17649;BME280;8943;51.110;-4.158;2022-10-22T15:15:58;100308.88;;;22.67;51.17
17649;BME280;8943;51.110;-4.158;2022-10-22T15:18:27;100301.31;;;22.55;51.58
17649;BME280;8943;51.110;-4.158;2022-10-22T15:20:57;100301.88;;;22.44;52.03
17649;BME280;8943;51.110;-4.158;2022-10-22T15:23:25;100301.25;;;22.42;52.11
17649;BME280;8943;51.110;-4.158;2022-10-22T15:25:54;100300.78;;;22.39;52.37
17649;BME280;8943;51.110;-4.158;2022-10-22T15:28:24;100303.28;;;22.33;52.49
17649;BME280;8943;51.110;-4.158;2022-10-22T15:30:53;100292.88;;;22.37;52.16
17649;BME280;8943;51.110;-4.158;2022-10-22T15:33:22;100282.38;;;22.27;52.42
17649;BME280;8943;51.110;-4.158;2022-10-22T15:35:50;100290.50;;;22.27;52.62
17649;BME280;8943;51.110;-4.158;2022-10-22T15:38:19;100293.59;;;22.24;52.68
17649;BME280;8943;51.110;-4.158;2022-10-22T15:40:48;100296.28;;;22.18;52.78
17649;BME280;8943;51.110;-4.158;2022-10-22T15:43:16;100299.72;;;22.05;52.81
17649;BME280;8943;51.110;-4.158;2022-10-22T15:45:55;100290.03;;;21.96;52.98
17649;BME280;8943;51.110;-4.158;2022-10-22T15:48:32;100292.09;;;21.87;53.00
17649;BME280;8943;51.110;-4.158;2022-10-22T15:51:03;100287.66;;;21.86;52.95
17649;BME280;8943;51.110;-4.158;2022-10-22T15:53:34;100291.63;;;21.83;53.42
17649;BME280;8943;51.110;-4.158;2022-10-22T15:56:03;100311.66;;;21.82;53.88
17649;BME280;8943;51.110;-4.158;2022-10-22T15:58:31;100304.09;;;21.78;53.62
17649;BME280;8943;51.110;-4.158;2022-10-22T16:01:06;100300.09;;;21.74;53.81
17649;BME280;8943;51.110;-4.158;2022-10-22T16:03:35;100303.19;;;21.71;53.89
17649;BME280;8943;51.110;-4.158;2022-10-22T16:06:05;100310.50;;;21.70;54.23
17649;BME280;8943;51.110;-4.158;2022-10-22T16:08:37;100304.44;;;21.68;54.37
17649;BME280;8943;51.110;-4.158;2022-10-22T16:11:10;100311.16;;;21.72;54.45
17649;BME280;8943;51.110;-4.158;2022-10-22T16:13:41;100305.72;;;21.72;54.82
17649;BME280;8943;51.110;-4.158;2022-10-22T16:16:13;100302.44;;;21.77;55.06
17649;BME280;8943;51.110;-4.158;2022-10-22T16:18:43;100306.63;;;21.79;54.58
17649;BME280;8943;51.110;-4.158;2022-10-22T16:21:13;100304.97;;;21.85;55.01
17649;BME280;8943;51.110;-4.158;2022-10-22T16:23:46;100299.78;;;21.83;55.15
17649;BME280;8943;51.110;-4.158;2022-10-22T16:26:18;100300.84;;;21.89;55.12
17649;BME280;8943;51.110;-4.158;2022-10-22T16:29:12;100300.00;;;21.89;54.91
17649;BME280;8943;51.110;-4.158;2022-10-22T16:32:02;100298.97;;;21.90;55.08
17649;BME280;8943;51.110;-4.158;2022-10-22T16:34:35;100301.06;;;21.88;55.35
17649;BME280;8943;51.110;-4.158;2022-10-22T16:37:04;100291.75;;;21.97;55.46
17649;BME280;8943;51.110;-4.158;2022-10-22T16:39:36;100301.47;;;22.13;55.57
17649;BME280;8943;51.110;-4.158;2022-10-22T16:42:04;100303.44;;;22.25;55.63
17649;BME280;8943;51.110;-4.158;2022-10-22T16:44:32;100289.53;;;22.42;55.60
17649;BME280;8943;51.110;-4.158;2022-10-22T16:47:02;100291.91;;;22.51;55.77
17649;BME280;8943;51.110;-4.158;2022-10-22T16:49:30;100290.25;;;22.57;55.39
17649;BME280;8943;51.110;-4.158;2022-10-22T16:51:58;100281.25;;;22.50;55.13
17649;BME280;8943;51.110;-4.158;2022-10-22T16:54:26;100276.22;;;22.47;54.87
17649;BME280;8943;51.110;-4.158;2022-10-22T16:56:55;100283.69;;;22.38;54.96
17649;BME280;8943;51.110;-4.158;2022-10-22T16:59:23;100285.09;;;22.27;54.82
17649;BME280;8943;51.110;-4.158;2022-10-22T17:01:51;100293.78;;;22.16;54.76
17649;BME280;8943;51.110;-4.158;2022-10-22T17:04:21;100288.69;;;22.06;54.62
17649;BME280;8943;51.110;-4.158;2022-10-22T17:06:49;100292.75;;;21.96;54.50
17649;BME280;8943;51.110;-4.158;2022-10-22T17:09:17;100300.81;;;21.82;54.62
17649;BME280;8943;51.110;-4.158;2022-10-22T17:11:46;100301.97;;;21.73;54.46
17649;BME280;8943;51.110;-4.158;2022-10-22T17:14:14;100305.22;;;21.62;54.66
17649;BME280;8943;51.110;-4.158;2022-10-22T17:16:42;100301.97;;;21.52;54.63
17649;BME280;8943;51.110;-4.158;2022-10-22T17:19:11;100300.25;;;21.44;54.88
17649;BME280;8943;51.110;-4.158;2022-10-22T17:21:43;100305.34;;;21.32;54.83
17649;BME280;8943;51.110;-4.158;2022-10-22T17:24:11;100302.94;;;21.23;54.71
17649;BME280;8943;51.110;-4.158;2022-10-22T17:26:39;100307.06;;;21.19;54.79
17649;BME280;8943;51.110;-4.158;2022-10-22T17:29:07;100305.28;;;21.11;55.01
17649;BME280;8943;51.110;-4.158;2022-10-22T17:31:36;100304.56;;;21.02;55.34
17649;BME280;8943;51.110;-4.158;2022-10-22T17:34:07;100310.56;;;20.98;54.95
17649;BME280;8943;51.110;-4.158;2022-10-22T17:36:36;100314.50;;;20.95;55.07
17649;BME280;8943;51.110;-4.158;2022-10-22T17:39:14;100317.97;;;20.89;55.48
17649;BME280;8943;51.110;-4.158;2022-10-22T17:41:54;100311.72;;;20.89;55.29
17649;BME280;8943;51.110;-4.158;2022-10-22T17:44:24;100318.91;;;20.81;55.45
17649;BME280;8943;51.110;-4.158;2022-10-22T17:46:53;100316.84;;;20.83;55.57
17649;BME280;8943;51.110;-4.158;2022-10-22T17:49:22;100314.06;;;20.77;55.65
17649;BME280;8943;51.110;-4.158;2022-10-22T17:51:50;100314.00;;;20.70;55.87
17649;BME280;8943;51.110;-4.158;2022-10-22T17:54:19;100307.91;;;20.68;55.96
17649;BME280;8943;51.110;-4.158;2022-10-22T17:56:47;100305.66;;;20.72;55.82
17649;BME280;8943;51.110;-4.158;2022-10-22T17:59:15;100306.22;;;20.67;55.86
17649;BME280;8943;51.110;-4.158;2022-10-22T18:01:44;100314.53;;;20.66;56.04
17649;BME280;8943;51.110;-4.158;2022-10-22T18:04:15;100298.94;;;20.68;56.07
17649;BME280;8943;51.110;-4.158;2022-10-22T18:06:44;100305.03;;;20.70;55.92
17649;BME280;8943;51.110;-4.158;2022-10-22T18:09:14;100309.78;;;20.68;55.70
17649;BME280;8943;51.110;-4.158;2022-10-22T18:11:46;100312.00;;;20.64;56.00
17649;BME280;8943;51.110;-4.158;2022-10-22T18:14:16;100307.25;;;20.66;56.02
17649;BME280;8943;51.110;-4.158;2022-10-22T18:16:44;100302.22;;;20.63;56.08
17649;BME280;8943;51.110;-4.158;2022-10-22T18:19:15;100308.66;;;20.62;56.10
17649;BME280;8943;51.110;-4.158;2022-10-22T18:21:44;100300.91;;;20.59;56.13
17649;BME280;8943;51.110;-4.158;2022-10-22T18:24:13;100308.38;;;20.57;56.17
17649;BME280;8943;51.110;-4.158;2022-10-22T18:26:41;100297.19;;;20.60;56.25
17649;BME280;8943;51.110;-4.158;2022-10-22T18:29:13;100306.72;;;20.56;56.33
17649;BME280;8943;51.110;-4.158;2022-10-22T18:31:43;100314.44;;;20.59;56.33